sensor_id;sensor_type;location;lat;lon;timestamp;pressure;altitude;pressure_sealevel;temperature;humidity
41230;BME280;26964;50.428;19.218;2023-02-04T00:00:56;1009.6;;;1.7;87.0
41230;BME280;26964;50.428;19.218;2023-02-04T00:05:56;1009.5;;;1.7;86.9
41230;BME280;26964;50.428;19.218;2023-02-04T00:10:56;1009.6;;;1.7;87.0
41230;BME280;26964;50.428;19.218;2023-02-04T00:15:56;1009.5;;;1.7;86.9
41230;BME280;26964;50.428;19.218;2023-02-04T00:20:56;1009.6;;;1.6;87.0
41230;BME280;26964;50.428;19.218;2023-02-04T00:25:55;1009.5;;;1.7;87.1
41230;BME280;26964;50.428;19.218;2023-02-04T00:30:56;1009.6;;;1.7;87.2
41230;BME280;26964;50.428;19.218;2023-02-04T00:35:56;1009.6;;;1.7;87.1
41230;BME280;26964;50.428;19.218;2023-02-04T00:40:55;1009.6;;;1.7;87.0
41230;BME280;26964;50.428;19.218;2023-02-04T00:45:56;1009.7;;;1.6;87.0
41230;BME280;26964;50.428;19.218;2023-02-04T00:50:56;1009.5;;;1.7;87.2
41230;BME280;26964;50.428;19.218;2023-02-04T00:55:56;1009.5;;;1.7;87.2
41230;BME280;26964;50.428;19.218;2023-02-04T01:00:55;1009.4;;;1.7;87.1
41230;BME280;26964;50.428;19.218;2023-02-04T01:05:57;1009.4;;;1.7;87.1
41230;BME280;26964;50.428;19.218;2023-02-04T01:10:56;1009.5;;;1.7;87.1
41230;BME280;26964;50.428;19.218;2023-02-04T01:15:56;1009.6;;;1.7;87.0
41230;BME280;26964;50.428;19.218;2023-02-04T01:20:56;1009.7;;;1.7;86.9
41230;BME280;26964;50.428;19.218;2023-02-04T01:25:56;1009.7;;;1.6;86.9
41230;BME280;26964;50.428;19.218;2023-02-04T01:30:55;1009.8;;;1.5;86.9
41230;BME280;26964;50.428;19.218;2023-02-04T01:35:56;1009.9;;;1.5;86.9
41230;BME280;26964;50.428;19.218;2023-02-04T01:40:55;1009.8;;;1.4;86.8
41230;BME280;26964;50.428;19.218;2023-02-04T01:45:55;1010.0;;;1.4;86.7
41230;BME280;26964;50.428;19.218;2023-02-04T01:51:01;1010.0;;;1.3;86.7
41230;BME280;26964;50.428;19.218;2023-02-04T01:55:56;1009.8;;;1.2;86.7
41230;BME280;26964;50.428;19.218;2023-02-04T02:00:56;1009.9;;;1.2;86.8
41230;BME280;26964;50.428;19.218;2023-02-04T02:05:56;1009.9;;;1.1;86.8
41230;BME280;26964;50.428;19.218;2023-02-04T02:10:56;1009.9;;;1.1;86.7
41230;BME280;26964;50.428;19.218;2023-02-04T02:15:56;1009.9;;;1.1;86.7
41230;BME280;26964;50.428;19.218;2023-02-04T02:20:59;1010.1;;;1.0;86.7
41230;BME280;26964;50.428;19.218;2023-02-04T02:26:04;1010.3;;;1.0;86.7
41230;BME280;26964;50.428;19.218;2023-02-04T02:31:01;1010.4;;;0.9;86.6
41230;BME280;26964;50.428;19.218;2023-02-04T02:36:04;1010.5;;;0.9;86.5
41230;BME280;26964;50.428;19.218;2023-02-04T02:41:01;1010.4;;;0.8;86.5
41230;BME280;26964;50.428;19.218;2023-02-04T02:46:01;1010.6;;;0.6;86.5
41230;BME280;26964;50.428;19.218;2023-02-04T02:51:02;1010.6;;;0.5;86.4
41230;BME280;26964;50.428;19.218;2023-02-04T02:56:04;1010.6;;;0.4;86.4
41230;BME280;26964;50.428;19.218;2023-02-04T03:01:03;1010.7;;;0.3;86.4
41230;BME280;26964;50.428;19.218;2023-02-04T03:06:05;1010.9;;;0.2;86.5
41230;BME280;26964;50.428;19.218;2023-02-04T03:11:01;1011.0;;;0.2;86.7
41230;BME280;26964;50.428;19.218;2023-02-04T03:16:01;1011.2;;;0.2;86.8
41230;BME280;26964;50.428;19.218;2023-02-04T03:21:01;1011.2;;;0.1;86.7
41230;BME280;26964;50.428;19.218;2023-02-04T03:26:02;1011.4;;;0.1;86.8
41230;BME280;26964;50.428;19.218;2023-02-04T03:31:01;1011.7;;;0.1;86.8
41230;BME280;26964;50.428;19.218;2023-02-04T03:41:01;1012.3;;;0.0;86.9
41230;BME280;26964;50.428;19.218;2023-02-04T03:46:01;1012.5;;;-0.1;86.9
41230;BME280;26964;50.428;19.218;2023-02-04T03:51:02;1012.8;;;-0.2;86.8
41230;BME280;26964;50.428;19.218;2023-02-04T03:56:01;1013.2;;;-0.3;86.6
41230;BME280;26964;50.428;19.218;2023-02-04T04:21:01;1014.9;;;-1.1;86.3
41230;BME280;26964;50.428;19.218;2023-02-04T04:26:12;1015.2;;;-1.2;86.3
41230;BME280;26964;50.428;19.218;2023-02-04T04:31:10;1015.5;;;-1.4;86.3
41230;BME280;26964;50.428;19.218;2023-02-04T04:36:08;1015.7;;;-1.5;86.4
41230;BME280;26964;50.428;19.218;2023-02-04T04:41:09;1016.0;;;-1.6;86.6
41230;BME280;26964;50.428;19.218;2023-02-04T04:46:09;1016.3;;;-1.7;86.7
41230;BME280;26964;50.428;19.218;2023-02-04T04:51:09;1016.6;;;-1.8;86.6
41230;BME280;26964;50.428;19.218;2023-02-04T04:56:08;1016.8;;;-1.8;86.6
41230;BME280;26964;50.428;19.218;2023-02-04T05:01:08;1017.2;;;-1.9;86.6
41230;BME280;26964;50.428;19.218;2023-02-04T05:06:08;1017.7;;;-1.9;86.7
41230;BME280;26964;50.428;19.218;2023-02-04T05:11:08;1017.9;;;-1.9;86.5
41230;BME280;26964;50.428;19.218;2023-02-04T05:16:08;1018.1;;;-2.0;86.3
41230;BME280;26964;50.428;19.218;2023-02-04T05:21:09;1018.4;;;-2.0;86.3
41230;BME280;26964;50.428;19.218;2023-02-04T05:26:08;1018.8;;;-2.0;86.1
41230;BME280;26964;50.428;19.218;2023-02-04T05:31:10;1019.4;;;-2.1;86.1
41230;BME280;26964;50.428;19.218;2023-02-04T05:36:08;1019.5;;;-2.1;86.0
41230;BME280;26964;50.428;19.218;2023-02-04T05:41:08;1019.8;;;-2.1;85.9
41230;BME280;26964;50.428;19.218;2023-02-04T05:46:08;1020.0;;;-2.2;85.9
41230;BME280;26964;50.428;19.218;2023-02-04T05:51:08;1020.4;;;-2.2;85.8
41230;BME280;26964;50.428;19.218;2023-02-04T05:56:08;1020.6;;;-2.2;85.7
41230;BME280;26964;50.428;19.218;2023-02-04T06:01:07;1020.9;;;-2.2;85.7
41230;BME280;26964;50.428;19.218;2023-02-04T06:06:10;1021.4;;;-2.2;85.6
41230;BME280;26964;50.428;19.218;2023-02-04T06:11:07;1021.6;;;-2.2;85.6
41230;BME280;26964;50.428;19.218;2023-02-04T06:16:08;1021.9;;;-2.2;85.5
41230;BME280;26964;50.428;19.218;2023-02-04T06:21:13;1022.1;;;-2.2;85.2
41230;BME280;26964;50.428;19.218;2023-02-04T06:26:08;1022.4;;;-2.2;85.3
41230;BME280;26964;50.428;19.218;2023-02-04T06:31:08;1022.5;;;-2.2;85.1
41230;BME280;26964;50.428;19.218;2023-02-04T06:36:08;1022.9;;;-2.2;85.2
41230;BME280;26964;50.428;19.218;2023-02-04T06:41:08;1023.1;;;-2.2;84.8
41230;BME280;26964;50.428;19.218;2023-02-04T06:46:20;1023.3;;;-2.2;84.9
41230;BME280;26964;50.428;19.218;2023-02-04T06:51:08;1023.7;;;-2.3;84.8
41230;BME280;26964;50.428;19.218;2023-02-04T06:56:08;1023.9;;;-2.3;84.9
41230;BME280;26964;50.428;19.218;2023-02-04T07:01:08;1024.2;;;-2.3;84.8
41230;BME280;26964;50.428;19.218;2023-02-04T07:06:09;1024.3;;;-2.3;84.8
41230;BME280;26964;50.428;19.218;2023-02-04T07:11:07;1024.6;;;-2.3;84.6
41230;BME280;26964;50.428;19.218;2023-02-04T07:16:08;1024.9;;;-2.2;84.6
41230;BME280;26964;50.428;19.218;2023-02-04T07:21:08;1025.0;;;-2.2;84.5
41230;BME280;26964;50.428;19.218;2023-02-04T07:26:07;1025.3;;;-2.2;84.5
41230;BME280;26964;50.428;19.218;2023-02-04T07:31:08;1025.5;;;-2.3;84.4
41230;BME280;26964;50.428;19.218;2023-02-04T07:36:08;1025.6;;;-2.3;84.1
41230;BME280;26964;50.428;19.218;2023-02-04T07:41:07;1025.9;;;-2.3;84.2
41230;BME280;26964;50.428;19.218;2023-02-04T07:46:08;1025.8;;;-2.2;84.0
41230;BME280;26964;50.428;19.218;2023-02-04T07:51:08;1026.0;;;-2.2;83.3
41230;BME280;26964;50.428;19.218;2023-02-04T07:56:07;1026.0;;;-2.1;83.9
41230;BME280;26964;50.428;19.218;2023-02-04T08:01:08;1026.4;;;-2.1;83.5
41230;BME280;26964;50.428;19.218;2023-02-04T08:06:07;1026.5;;;-2.1;83.9
41230;BME280;26964;50.428;19.218;2023-02-04T08:11:07;1026.5;;;-2.1;84.0
41230;BME280;26964;50.428;19.218;2023-02-04T08:16:08;1026.7;;;-2.1;84.0
41230;BME280;26964;50.428;19.218;2023-02-04T08:21:07;1026.9;;;-2.0;83.7
41230;BME280;26964;50.428;19.218;2023-02-04T08:26:08;1027.1;;;-2.0;83.4
41230;BME280;26964;50.428;19.218;2023-02-04T08:31:08;1027.2;;;-1.9;83.3
41230;BME280;26964;50.428;19.218;2023-02-04T08:36:07;1027.3;;;-1.8;83.6
41230;BME280;26964;50.428;19.218;2023-02-04T08:41:07;1027.6;;;-1.7;83.6
41230;BME280;26964;50.428;19.218;2023-02-04T08:46:08;1027.7;;;-1.6;83.8
41230;BME280;26964;50.428;19.218;2023-02-04T08:51:08;1027.8;;;-1.5;83.6
41230;BME280;26964;50.428;19.218;2023-02-04T08:56:07;1027.9;;;-1.5;83.4
41230;BME280;26964;50.428;19.218;2023-02-04T09:01:08;1028.0;;;-1.5;82.9
41230;BME280;26964;50.428;19.218;2023-02-04T09:06:07;1028.0;;;-1.4;83.3
41230;BME280;26964;50.428;19.218;2023-02-04T09:11:07;1028.1;;;-1.2;83.0
41230;BME280;26964;50.428;19.218;2023-02-04T09:16:08;1028.2;;;-1.3;83.2
41230;BME280;26964;50.428;19.218;2023-02-04T09:21:07;1028.4;;;-1.3;83.2
41230;BME280;26964;50.428;19.218;2023-02-04T09:26:07;1028.6;;;-1.2;83.1
41230;BME280;26964;50.428;19.218;2023-02-04T09:31:07;1028.7;;;-1.2;82.8
41230;BME280;26964;50.428;19.218;2023-02-04T09:36:07;1028.8;;;-1.3;81.9
41230;BME280;26964;50.428;19.218;2023-02-04T09:41:09;1028.9;;;-1.1;82.2
41230;BME280;26964;50.428;19.218;2023-02-04T09:46:14;1028.8;;;-0.9;82.4
41230;BME280;26964;50.428;19.218;2023-02-04T09:51:09;1029.0;;;-1.0;81.7
41230;BME280;26964;50.428;19.218;2023-02-04T09:56:08;1029.2;;;-1.0;81.7
41230;BME280;26964;50.428;19.218;2023-02-04T10:01:12;1029.2;;;-0.9;80.6
41230;BME280;26964;50.428;19.218;2023-02-04T10:06:07;1029.2;;;-0.7;80.9
41230;BME280;26964;50.428;19.218;2023-02-04T10:11:08;1029.2;;;-0.5;80.8
41230;BME280;26964;50.428;19.218;2023-02-04T10:16:13;1029.3;;;-0.6;80.1
41230;BME280;26964;50.428;19.218;2023-02-04T10:21:13;1029.5;;;-0.6;81.2
41230;BME280;26964;50.428;19.218;2023-02-04T10:26:09;1029.5;;;-0.8;79.2
41230;BME280;26964;50.428;19.218;2023-02-04T10:36:07;1029.7;;;-1.1;79.9
41230;BME280;26964;50.428;19.218;2023-02-04T10:41:11;1029.6;;;-1.1;79.8
41230;BME280;26964;50.428;19.218;2023-02-04T10:46:08;1029.7;;;-1.1;79.0
41230;BME280;26964;50.428;19.218;2023-02-04T10:51:11;1029.9;;;-1.2;78.2
41230;BME280;26964;50.428;19.218;2023-02-04T10:56:13;1030.0;;;-1.2;77.5
41230;BME280;26964;50.428;19.218;2023-02-04T11:01:08;1030.0;;;-1.2;77.6
41230;BME280;26964;50.428;19.218;2023-02-04T11:06:10;1030.1;;;-1.0;77.8
41230;BME280;26964;50.428;19.218;2023-02-04T11:11:11;1030.1;;;-1.0;78.3
41230;BME280;26964;50.428;19.218;2023-02-04T11:16:10;1030.2;;;-0.9;76.7
41230;BME280;26964;50.428;19.218;2023-02-04T11:21:13;1030.3;;;-0.9;78.5
41230;BME280;26964;50.428;19.218;2023-02-04T11:26:10;1030.2;;;-0.9;77.4
41230;BME280;26964;50.428;19.218;2023-02-04T11:31:12;1030.3;;;-0.9;76.4
41230;BME280;26964;50.428;19.218;2023-02-04T11:36:09;1030.3;;;-1.0;77.0
41230;BME280;26964;50.428;19.218;2023-02-04T11:46:12;1030.3;;;-1.1;76.9
41230;BME280;26964;50.428;19.218;2023-02-04T11:51:11;1030.4;;;-1.1;76.6
41230;BME280;26964;50.428;19.218;2023-02-04T12:06:07;1030.6;;;-1.1;75.7
41230;BME280;26964;50.428;19.218;2023-02-04T12:11:10;1030.7;;;-1.2;75.6
41230;BME280;26964;50.428;19.218;2023-02-04T12:16:08;1030.8;;;-1.2;75.6
41230;BME280;26964;50.428;19.218;2023-02-04T12:21:08;1030.8;;;-1.3;74.2
41230;BME280;26964;50.428;19.218;2023-02-04T12:26:07;1030.8;;;-1.3;76.1
41230;BME280;26964;50.428;19.218;2023-02-04T12:31:08;1030.8;;;-1.4;75.0
41230;BME280;26964;50.428;19.218;2023-02-04T12:36:07;1030.9;;;-1.4;75.7
41230;BME280;26964;50.428;19.218;2023-02-04T12:41:07;1031.1;;;-1.5;75.3
41230;BME280;26964;50.428;19.218;2023-02-04T12:46:07;1031.1;;;-1.4;75.9
41230;BME280;26964;50.428;19.218;2023-02-04T12:51:08;1031.0;;;-1.3;76.2
41230;BME280;26964;50.428;19.218;2023-02-04T12:56:07;1031.1;;;-1.3;76.0
41230;BME280;26964;50.428;19.218;2023-02-04T13:01:08;1031.2;;;-1.4;74.8
41230;BME280;26964;50.428;19.218;2023-02-04T13:06:07;1031.2;;;-1.3;76.3
41230;BME280;26964;50.428;19.218;2023-02-04T13:11:07;1031.3;;;-1.1;76.3
41230;BME280;26964;50.428;19.218;2023-02-04T13:16:08;1031.3;;;-1.2;75.4
41230;BME280;26964;50.428;19.218;2023-02-04T13:21:07;1031.3;;;-1.3;74.8
41230;BME280;26964;50.428;19.218;2023-02-04T13:26:07;1031.7;;;-1.4;76.2
41230;BME280;26964;50.428;19.218;2023-02-04T13:31:07;1031.6;;;-1.6;76.5
41230;BME280;26964;50.428;19.218;2023-02-04T13:36:08;1031.6;;;-1.8;76.7
41230;BME280;26964;50.428;19.218;2023-02-04T13:41:07;1031.6;;;-1.8;77.0
41230;BME280;26964;50.428;19.218;2023-02-04T13:46:08;1031.7;;;-2.0;76.4
41230;BME280;26964;50.428;19.218;2023-02-04T13:51:07;1031.7;;;-2.1;76.0
41230;BME280;26964;50.428;19.218;2023-02-04T13:56:07;1031.7;;;-2.2;76.0
41230;BME280;26964;50.428;19.218;2023-02-04T14:01:08;1031.7;;;-2.2;76.1
41230;BME280;26964;50.428;19.218;2023-02-04T14:06:08;1031.9;;;-2.2;76.5
41230;BME280;26964;50.428;19.218;2023-02-04T14:11:07;1031.8;;;-2.3;76.9
41230;BME280;26964;50.428;19.218;2023-02-04T14:16:08;1032.0;;;-2.3;77.0
41230;BME280;26964;50.428;19.218;2023-02-04T14:21:08;1031.9;;;-2.3;77.3
41230;BME280;26964;50.428;19.218;2023-02-04T14:26:07;1032.0;;;-2.2;77.4
41230;BME280;26964;50.428;19.218;2023-02-04T14:31:08;1032.0;;;-2.1;77.1
41230;BME280;26964;50.428;19.218;2023-02-04T14:36:07;1032.2;;;-2.2;76.9
41230;BME280;26964;50.428;19.218;2023-02-04T14:41:09;1032.3;;;-2.3;77.1
41230;BME280;26964;50.428;19.218;2023-02-04T14:46:07;1032.3;;;-2.4;77.1
41230;BME280;26964;50.428;19.218;2023-02-04T14:51:07;1032.3;;;-2.4;77.1
41230;BME280;26964;50.428;19.218;2023-02-04T14:56:08;1032.5;;;-2.5;77.2
41230;BME280;26964;50.428;19.218;2023-02-04T15:01:07;1032.4;;;-2.5;77.3
41230;BME280;26964;50.428;19.218;2023-02-04T15:06:07;1032.5;;;-2.5;77.5
41230;BME280;26964;50.428;19.218;2023-02-04T15:11:07;1032.5;;;-2.5;77.5
41230;BME280;26964;50.428;19.218;2023-02-04T15:16:07;1032.4;;;-2.5;77.6
41230;BME280;26964;50.428;19.218;2023-02-04T15:21:07;1032.3;;;-2.5;77.7
41230;BME280;26964;50.428;19.218;2023-02-04T15:26:07;1032.4;;;-2.5;77.8
41230;BME280;26964;50.428;19.218;2023-02-04T15:31:07;1032.5;;;-2.6;78.1
41230;BME280;26964;50.428;19.218;2023-02-04T15:36:07;1032.6;;;-2.7;78.1
41230;BME280;26964;50.428;19.218;2023-02-04T15:41:06;1032.7;;;-2.7;78.3
41230;BME280;26964;50.428;19.218;2023-02-04T15:46:06;1032.7;;;-2.7;78.4
41230;BME280;26964;50.428;19.218;2023-02-04T15:51:06;1032.8;;;-2.7;78.4
41230;BME280;26964;50.428;19.218;2023-02-04T15:56:07;1032.9;;;-2.7;78.5
41230;BME280;26964;50.428;19.218;2023-02-04T16:01:07;1032.9;;;-2.7;78.5
41230;BME280;26964;50.428;19.218;2023-02-04T16:06:09;1033.0;;;-2.7;78.6
41230;BME280;26964;50.428;19.218;2023-02-04T16:11:07;1033.1;;;-2.7;78.7
41230;BME280;26964;50.428;19.218;2023-02-04T16:16:07;1033.0;;;-2.7;78.7
41230;BME280;26964;50.428;19.218;2023-02-04T16:21:07;1033.1;;;-2.7;78.8
41230;BME280;26964;50.428;19.218;2023-02-04T16:26:06;1033.1;;;-2.8;78.9
41230;BME280;26964;50.428;19.218;2023-02-04T16:36:09;1033.1;;;-2.8;79.0
41230;BME280;26964;50.428;19.218;2023-02-04T16:41:15;1033.0;;;-2.8;79.1
41230;BME280;26964;50.428;19.218;2023-02-04T16:46:18;1033.1;;;-2.8;79.1
41230;BME280;26964;50.428;19.218;2023-02-04T16:56:18;1033.1;;;-2.8;79.2
41230;BME280;26964;50.428;19.218;2023-02-04T17:06:34;1033.2;;;-2.8;79.3
41230;BME280;26964;50.428;19.218;2023-02-04T17:11:32;1033.1;;;-2.8;79.3
41230;BME280;26964;50.428;19.218;2023-02-04T17:16:35;1033.1;;;-2.8;79.4
41230;BME280;26964;50.428;19.218;2023-02-04T17:21:33;1033.1;;;-2.8;79.4
41230;BME280;26964;50.428;19.218;2023-02-04T17:26:39;1033.2;;;-2.8;79.6
41230;BME280;26964;50.428;19.218;2023-02-04T17:36:44;1033.2;;;-2.8;79.6
41230;BME280;26964;50.428;19.218;2023-02-04T17:41:33;1033.2;;;-2.8;80.1
41230;BME280;26964;50.428;19.218;2023-02-04T17:46:35;1033.3;;;-2.8;79.8
41230;BME280;26964;50.428;19.218;2023-02-04T17:51:33;1033.4;;;-2.8;79.8
41230;BME280;26964;50.428;19.218;2023-02-04T17:56:34;1033.5;;;-2.8;80.1
41230;BME280;26964;50.428;19.218;2023-02-04T18:01:33;1033.5;;;-2.8;79.9
41230;BME280;26964;50.428;19.218;2023-02-04T18:12:00;1033.5;;;-2.8;80.0
41230;BME280;26964;50.428;19.218;2023-02-04T18:21:38;1033.5;;;-2.8;79.9
41230;BME280;26964;50.428;19.218;2023-02-04T18:26:43;1033.5;;;-2.7;79.7
41230;BME280;26964;50.428;19.218;2023-02-04T18:31:48;1033.5;;;-2.8;79.6
41230;BME280;26964;50.428;19.218;2023-02-04T18:41:42;1033.6;;;-2.9;79.3
41230;BME280;26964;50.428;19.218;2023-02-04T18:46:45;1033.5;;;-2.9;79.4
41230;BME280;26964;50.428;19.218;2023-02-04T18:51:44;1033.5;;;-2.8;79.2
41230;BME280;26964;50.428;19.218;2023-02-04T18:56:41;1033.6;;;-2.8;79.3
41230;BME280;26964;50.428;19.218;2023-02-04T19:01:40;1033.6;;;-2.8;79.3
41230;BME280;26964;50.428;19.218;2023-02-04T19:06:42;1033.6;;;-2.8;79.3
41230;BME280;26964;50.428;19.218;2023-02-04T19:11:41;1033.7;;;-2.8;79.4
41230;BME280;26964;50.428;19.218;2023-02-04T19:16:40;1033.8;;;-2.8;79.5
41230;BME280;26964;50.428;19.218;2023-02-04T19:21:40;1033.8;;;-2.8;79.5
41230;BME280;26964;50.428;19.218;2023-02-04T19:26:42;1033.9;;;-2.8;79.5
41230;BME280;26964;50.428;19.218;2023-02-04T19:31:40;1033.9;;;-2.8;79.5
41230;BME280;26964;50.428;19.218;2023-02-04T19:36:41;1034.0;;;-2.8;79.4
41230;BME280;26964;50.428;19.218;2023-02-04T19:41:43;1033.9;;;-2.8;79.3
41230;BME280;26964;50.428;19.218;2023-02-04T19:46:41;1033.9;;;-2.8;79.3
41230;BME280;26964;50.428;19.218;2023-02-04T19:51:41;1033.9;;;-2.8;79.3
41230;BME280;26964;50.428;19.218;2023-02-04T19:56:40;1033.9;;;-2.8;79.4
41230;BME280;26964;50.428;19.218;2023-02-04T20:01:40;1034.0;;;-2.8;79.3
41230;BME280;26964;50.428;19.218;2023-02-04T20:06:42;1034.1;;;-2.9;79.3
41230;BME280;26964;50.428;19.218;2023-02-04T20:11:45;1034.1;;;-3.0;79.2
41230;BME280;26964;50.428;19.218;2023-02-04T20:16:45;1034.1;;;-3.0;79.3
41230;BME280;26964;50.428;19.218;2023-02-04T20:21:42;1034.3;;;-3.1;79.2
41230;BME280;26964;50.428;19.218;2023-02-04T20:26:52;1034.4;;;-3.2;79.3
41230;BME280;26964;50.428;19.218;2023-02-04T20:36:45;1034.5;;;-3.2;79.3
41230;BME280;26964;50.428;19.218;2023-02-04T20:41:44;1034.6;;;-3.2;79.3
41230;BME280;26964;50.428;19.218;2023-02-04T20:46:45;1034.5;;;-3.2;79.2
41230;BME280;26964;50.428;19.218;2023-02-04T20:51:45;1034.6;;;-3.2;79.2
41230;BME280;26964;50.428;19.218;2023-02-04T20:56:44;1034.6;;;-3.3;79.1
41230;BME280;26964;50.428;19.218;2023-02-04T21:01:45;1034.6;;;-3.3;79.2
41230;BME280;26964;50.428;19.218;2023-02-04T21:06:44;1034.6;;;-3.3;79.2
41230;BME280;26964;50.428;19.218;2023-02-04T21:11:44;1034.7;;;-3.4;79.2
41230;BME280;26964;50.428;19.218;2023-02-04T21:16:44;1034.7;;;-3.5;79.0
41230;BME280;26964;50.428;19.218;2023-02-04T21:21:56;1034.8;;;-3.5;79.1
41230;BME280;26964;50.428;19.218;2023-02-04T21:26:47;1034.8;;;-3.6;79.1
41230;BME280;26964;50.428;19.218;2023-02-04T21:31:46;1034.8;;;-3.7;79.0
41230;BME280;26964;50.428;19.218;2023-02-04T21:36:47;1034.8;;;-3.7;79.0
41230;BME280;26964;50.428;19.218;2023-02-04T21:41:46;1035.0;;;-3.8;78.9
41230;BME280;26964;50.428;19.218;2023-02-04T21:46:47;1035.0;;;-3.8;78.9
41230;BME280;26964;50.428;19.218;2023-02-04T21:51:47;1035.2;;;-3.8;79.1
41230;BME280;26964;50.428;19.218;2023-02-04T21:56:47;1035.1;;;-3.8;79.1
41230;BME280;26964;50.428;19.218;2023-02-04T22:01:46;1035.1;;;-3.8;79.2
41230;BME280;26964;50.428;19.218;2023-02-04T22:06:48;1035.2;;;-3.8;79.2
41230;BME280;26964;50.428;19.218;2023-02-04T22:11:46;1035.2;;;-3.7;79.1
41230;BME280;26964;50.428;19.218;2023-02-04T22:16:46;1035.4;;;-3.7;79.1
41230;BME280;26964;50.428;19.218;2023-02-04T22:21:47;1035.4;;;-3.7;79.1
41230;BME280;26964;50.428;19.218;2023-02-04T22:26:47;1035.5;;;-3.7;79.1
41230;BME280;26964;50.428;19.218;2023-02-04T22:31:46;1035.6;;;-3.7;79.1
41230;BME280;26964;50.428;19.218;2023-02-04T22:36:46;1035.6;;;-3.7;79.1
41230;BME280;26964;50.428;19.218;2023-02-04T22:41:47;1035.6;;;-3.7;79.2
41230;BME280;26964;50.428;19.218;2023-02-04T22:46:46;1035.6;;;-3.7;79.1
41230;BME280;26964;50.428;19.218;2023-02-04T22:51:46;1035.7;;;-3.7;79.0
41230;BME280;26964;50.428;19.218;2023-02-04T22:56:47;1035.8;;;-3.7;79.0
41230;BME280;26964;50.428;19.218;2023-02-04T23:01:46;1035.8;;;-3.7;78.9
41230;BME280;26964;50.428;19.218;2023-02-04T23:06:46;1035.8;;;-3.7;79.0
41230;BME280;26964;50.428;19.218;2023-02-04T23:11:46;1035.8;;;-3.7;79.1
41230;BME280;26964;50.428;19.218;2023-02-04T23:16:46;1035.9;;;-3.7;79.1
41230;BME280;26964;50.428;19.218;2023-02-04T23:21:47;1035.9;;;-3.7;79.1
41230;BME280;26964;50.428;19.218;2023-02-04T23:26:46;1036.0;;;-3.8;79.1
41230;BME280;26964;50.428;19.218;2023-02-04T23:31:46;1036.1;;;-3.8;79.1
41230;BME280;26964;50.428;19.218;2023-02-04T23:36:46;1036.1;;;-3.8;79.2
41230;BME280;26964;50.428;19.218;2023-02-04T23:41:47;1036.1;;;-3.8;79.2
41230;BME280;26964;50.428;19.218;2023-02-04T23:46:46;1036.0;;;-3.8;79.2
41230;BME280;26964;50.428;19.218;2023-02-04T23:51:46;1036.0;;;-3.7;79.2
41230;BME280;26964;50.428;19.218;2023-02-04T23:56:46;1036.1;;;-3.8;79.2
